Time;durP1;ratioP1;P1;durP2;ratioP2;P2;SDS_P1;SDS_P2;PMS_P1;PMS_P2;Temp;Humidity;BMP_temperature;BMP_pressure;BME280_temperature;BME280_humidity;BME280_pressure;Samples;Min_cycle;Max_cycle;Signal;HPM_P1;HPM_P2
2022/10/24 00:00:18;;;;;;;12.53;5.47;;;17.20;99.90;;;;;;5042879;28;20186;-79
2022/10/24 00:02:44;;;;;;;9.73;4.33;;;17.20;99.90;;;;;;5040664;28;20234;-80
2022/10/24 00:05:13;;;;;;;7.67;6.67;;;17.20;99.90;;;;;;5037951;28;20187;-79
2022/10/24 00:07:41;;;;;;;13.03;9.50;;;17.30;99.90;;;;;;5037193;28;20195;-80
2022/10/24 00:10:08;;;;;;;4.73;3.73;;;17.20;99.90;;;;;;5037734;28;20179;-80
2022/10/24 00:12:34;;;;;;;7.47;5.43;;;17.00;99.90;;;;;;5038137;28;20275;-79
2022/10/24 00:15:00;;;;;;;9.23;6.23;;;16.90;99.90;;;;;;5037308;28;20631;-79
2022/10/24 00:17:26;;;;;;;9.83;6.80;;;16.70;99.90;;;;;;5039225;28;20187;-80
2022/10/24 00:19:53;;;;;;;11.60;5.67;;;16.60;99.90;;;;;;5053557;28;20209;-79
2022/10/24 00:22:19;;;;;;;12.07;7.40;;;16.40;99.90;;;;;;5041190;28;20637;-79
2022/10/24 00:24:45;;;;;;;26.33;24.27;;;16.40;99.90;;;;;;5037656;28;20175;-79
2022/10/24 00:27:11;;;;;;;16.03;14.87;;;16.30;99.90;;;;;;5037544;28;20213;-79
2022/10/24 00:29:37;;;;;;;10.83;9.50;;;16.10;99.90;;;;;;5045383;28;20243;-78
2022/10/24 00:32:03;;;;;;;12.73;11.30;;;16.10;99.90;;;;;;5050672;28;20207;-79
2022/10/24 00:34:29;;;;;;;19.77;17.50;;;16.00;99.90;;;;;;5046253;28;20197;-79
2022/10/24 00:36:55;;;;;;;23.30;21.67;;;16.00;99.90;;;;;;5040965;28;20628;-79
2022/10/24 00:39:21;;;;;;;26.90;25.37;;;16.00;99.90;;;;;;5039525;28;20386;-78
2022/10/24 00:41:46;;;;;;;48.00;44.93;;;15.90;99.90;;;;;;5039519;28;20210;-79
2022/10/24 00:44:25;;;;;;;51.97;49.10;;;15.90;99.90;;;;;;5044834;28;20656;-78
2022/10/24 00:46:55;;;;;;;57.50;53.93;;;15.80;99.90;;;;;;5050249;28;20194;-79
2022/10/24 00:49:27;;;;;;;90.33;85.37;;;15.70;99.90;;;;;;5041190;28;20182;-80
2022/10/24 00:51:57;;;;;;;92.87;87.70;;;15.60;99.90;;;;;;5039416;28;20213;-79
2022/10/24 00:54:23;;;;;;;46.53;43.07;;;15.50;99.90;;;;;;5043394;28;20190;-79
2022/10/24 00:57:01;;;;;;;28.53;25.90;;;15.40;99.90;;;;;;5042800;28;20193;-80
2022/10/24 00:59:28;;;;;;;38.40;35.63;;;15.30;99.90;;;;;;5043299;28;20194;-80
2022/10/24 01:01:54;;;;;;;56.90;53.60;;;15.20;99.90;;;;;;5042321;28;20226;-79
2022/10/24 01:04:19;;;;;;;71.83;68.20;;;15.20;99.90;;;;;;5042233;28;20257;-80
2022/10/24 01:07:05;;;;;;;49.60;46.80;;;15.10;99.90;;;;;;5054432;28;20171;-80
2022/10/24 01:09:53;;;;;;;38.83;36.37;;;15.10;99.90;;;;;;5046252;28;20218;-80
2022/10/24 01:12:24;;;;;;;36.67;34.30;;;15.00;99.90;;;;;;5044556;28;20210;-79
2022/10/24 01:14:50;;;;;;;31.93;29.80;;;14.90;99.90;;;;;;5052163;28;20259;-80
2022/10/24 01:17:41;;;;;;;29.47;27.80;;;14.90;99.90;;;;;;5056623;28;20180;-79
2022/10/24 01:20:21;;;;;;;29.40;27.47;;;14.90;99.90;;;;;;5044898;28;20191;-80
2022/10/24 01:23:06;;;;;;;25.80;22.30;;;14.90;99.90;;;;;;5045738;28;20206;-79
2022/10/24 01:26:06;;;;;;;19.27;16.93;;;14.80;99.90;;;;;;5053537;28;20233;-80
2022/10/24 01:28:44;;;;;;;16.90;13.40;;;14.90;99.90;;;;;;5031538;28;20660;-79
2022/10/24 01:31:31;;;;;;;15.47;9.50;;;14.90;99.90;;;;;;5034444;28;20187;-80
2022/10/24 01:34:03;;;;;;;9.13;8.23;;;14.80;99.90;;;;;;5037987;28;20635;-79
2022/10/24 01:36:43;;;;;;;10.03;9.10;;;14.90;99.90;;;;;;5041770;28;20183;-79
2022/10/24 01:39:14;;;;;;;23.80;22.10;;;15.00;99.90;;;;;;5041663;28;20186;-79
2022/10/24 01:41:41;;;;;;;29.93;27.70;;;15.10;99.90;;;;;;5041380;28;20241;-79
2022/10/24 01:44:22;;;;;;;28.17;25.83;;;15.20;99.90;;;;;;5043195;28;20237;-80
2022/10/24 01:47:00;;;;;;;24.67;22.47;;;15.30;99.90;;;;;;5042789;28;20179;-80
2022/10/24 01:49:32;;;;;;;24.53;22.70;;;15.20;99.90;;;;;;5041949;28;20191;-80
2022/10/24 01:52:01;;;;;;;25.60;24.10;;;15.10;99.90;;;;;;5040401;28;20544;-79
2022/10/24 01:54:28;;;;;;;27.87;26.23;;;15.10;99.90;;;;;;5039941;28;20183;-80
2022/10/24 01:56:55;;;;;;;29.80;27.63;;;15.20;99.90;;;;;;5040787;28;20179;-79
2022/10/24 01:59:27;;;;;;;28.20;26.40;;;15.20;99.90;;;;;;5050936;28;20308;-80
2022/10/24 02:02:04;;;;;;;21.03;19.73;;;15.30;99.90;;;;;;5049216;28;20523;-80
2022/10/24 02:04:33;;;;;;;10.53;9.83;;;15.20;99.90;;;;;;5040154;28;20194;-79
2022/10/24 02:07:02;;;;;;;6.80;6.30;;;15.30;99.90;;;;;;5041083;28;20308;-80
2022/10/24 02:09:30;;;;;;;8.03;7.37;;;15.30;99.90;;;;;;5041605;28;20186;-79
2022/10/24 02:11:58;;;;;;;9.97;6.27;;;15.30;99.90;;;;;;5044163;28;20240;-80
2022/10/24 02:14:32;;;;;;;8.33;6.40;;;15.30;99.90;;;;;;5041998;28;20179;-80
2022/10/24 02:16:59;;;;;;;7.00;6.50;;;15.30;99.90;;;;;;5051681;28;20213;-79
2022/10/24 02:19:25;;;;;;;11.13;9.17;;;15.30;99.90;;;;;;5042296;28;20712;-80
2022/10/24 02:21:57;;;;;;;10.50;7.27;;;15.30;99.90;;;;;;5038727;28;20219;-79
2022/10/24 02:24:41;;;;;;;16.47;15.53;;;15.30;99.90;;;;;;5037927;28;20396;-80
2022/10/24 02:27:15;;;;;;;30.07;28.07;;;15.30;99.90;;;;;;5039078;28;20179;-79
2022/10/24 02:29:46;;;;;;;40.83;38.50;;;15.40;99.90;;;;;;5038410;28;20202;-80
2022/10/24 02:32:18;;;;;;;58.67;55.30;;;15.50;99.90;;;;;;5048835;28;20274;-79
2022/10/24 02:34:45;;;;;;;75.07;71.03;;;15.70;99.90;;;;;;5045901;28;20186;-80
2022/10/24 02:37:14;;;;;;;77.60;73.20;;;15.70;99.90;;;;;;5044470;28;20558;-79
2022/10/24 02:39:44;;;;;;;82.03;76.60;;;15.70;99.90;;;;;;5041851;28;20193;-80
2022/10/24 02:42:11;;;;;;;75.37;71.17;;;15.70;99.90;;;;;;5039452;28;20219;-79
2022/10/24 02:44:38;;;;;;;85.50;80.80;;;15.70;99.90;;;;;;5040812;28;20661;-79
2022/10/24 02:47:05;;;;;;;92.10;87.07;;;15.70;99.90;;;;;;5041363;28;20187;-79
2022/10/24 02:49:31;;;;;;;88.67;83.73;;;15.70;99.90;;;;;;5039981;28;20322;-79
2022/10/24 02:51:59;;;;;;;58.13;54.97;;;15.70;99.90;;;;;;5043843;28;20211;-79
2022/10/24 02:54:24;;;;;;;23.20;21.77;;;15.70;99.90;;;;;;5044616;28;20596;-79
2022/10/24 02:56:58;;;;;;;9.90;9.17;;;15.70;99.90;;;;;;5042363;28;20232;-79
2022/10/24 02:59:24;;;;;;;14.90;13.70;;;15.50;99.90;;;;;;5045432;28;20302;-79
2022/10/24 03:01:49;;;;;;;76.80;72.27;;;15.50;99.90;;;;;;5045637;28;20219;-79
2022/10/24 03:04:16;;;;;;;86.67;81.67;;;15.70;99.90;;;;;;5056457;28;20198;-79
2022/10/24 03:06:41;;;;;;;88.33;83.20;;;16.00;99.90;;;;;;5034323;28;20610;-79
2022/10/24 03:09:07;;;;;;;68.47;64.47;;;16.00;99.90;;;;;;5037540;28;20194;-80
2022/10/24 03:11:33;;;;;;;31.03;29.00;;;16.10;99.90;;;;;;5052617;28;20193;-79
2022/10/24 03:13:59;;;;;;;23.27;21.50;;;16.30;99.90;;;;;;5054114;28;20934;-79
2022/10/24 03:16:26;;;;;;;16.30;15.00;;;16.50;99.90;;;;;;5054631;28;20190;-79
2022/10/24 03:18:52;;;;;;;14.87;7.40;;;16.50;99.90;;;;;;5056970;28;20249;-79
2022/10/24 03:21:18;;;;;;;10.13;5.57;;;16.50;99.90;;;;;;5060237;28;20259;-79
2022/10/24 03:23:44;;;;;;;11.57;5.93;;;16.50;99.90;;;;;;5059581;28;20221;-79
2022/10/24 03:26:10;;;;;;;10.77;6.53;;;16.40;99.90;;;;;;5057793;28;20199;-79
2022/10/24 03:28:36;;;;;;;12.40;11.23;;;16.20;99.90;;;;;;5045155;28;20199;-79
2022/10/24 03:31:02;;;;;;;18.83;17.07;;;16.20;99.90;;;;;;5050302;28;20183;-79
2022/10/24 03:33:28;;;;;;;17.00;15.60;;;16.10;99.90;;;;;;5050658;28;20203;-78
2022/10/24 03:35:54;;;;;;;23.97;22.00;;;16.20;99.90;;;;;;5039891;28;20592;-80
2022/10/24 03:38:21;;;;;;;41.10;38.30;;;16.20;99.90;;;;;;5039455;28;20237;-79
2022/10/24 03:40:48;;;;;;;40.77;38.17;;;16.20;99.90;;;;;;5040012;28;20175;-79
2022/10/24 03:43:14;;;;;;;37.80;35.30;;;16.20;99.90;;;;;;5042333;28;20222;-80
2022/10/24 03:45:39;;;;;;;84.47;79.83;;;16.20;99.90;;;;;;5060477;28;20179;-80
2022/10/24 03:48:05;;;;;;;92.27;87.30;;;16.20;99.90;;;;;;5057891;28;20555;-79
2022/10/24 03:50:32;;;;;;;81.37;76.90;;;16.20;99.90;;;;;;5063117;28;20190;-80
2022/10/24 03:52:59;;;;;;;80.27;75.87;;;16.30;99.90;;;;;;5046757;28;20211;-79
2022/10/24 03:55:25;;;;;;;55.20;51.70;;;16.50;99.90;;;;;;5048262;28;20205;-79
2022/10/24 03:57:52;;;;;;;26.97;24.97;;;16.60;99.90;;;;;;5051314;28;20179;-80
2022/10/24 04:00:18;;;;;;;10.27;8.00;;;16.60;99.90;;;;;;5049956;28;20175;-78
2022/10/24 04:02:45;;;;;;;11.00;5.53;;;16.70;99.90;;;;;;5043586;28;20218;-79
2022/10/24 04:05:11;;;;;;;10.17;5.17;;;16.80;99.90;;;;;;5061009;28;20175;-80
2022/10/24 04:07:37;;;;;;;7.97;5.10;;;16.90;99.90;;;;;;5062763;28;20246;-79
2022/10/24 04:10:04;;;;;;;10.53;5.90;;;16.90;99.90;;;;;;5049228;28;20187;-78
2022/10/24 04:12:29;;;;;;;12.13;6.33;;;16.90;99.90;;;;;;5080027;22;20221;-79
2022/10/24 04:14:55;;;;;;;7.97;5.50;;;16.80;99.90;;;;;;5047991;28;20773;-78
2022/10/24 04:17:21;;;;;;;10.47;6.80;;;16.80;99.90;;;;;;5051898;28;20190;-78
2022/10/24 04:19:47;;;;;;;8.00;6.30;;;16.70;99.90;;;;;;5052254;28;20179;-79
2022/10/24 04:22:13;;;;;;;10.53;7.87;;;16.70;99.90;;;;;;5058280;28;20213;-78
2022/10/24 04:24:38;;;;;;;16.50;9.13;;;16.80;99.90;;;;;;5072308;28;20177;-79
2022/10/24 04:27:06;;;;;;;13.03;8.27;;;16.80;99.90;;;;;;5069070;28;20235;-78
2022/10/24 04:29:33;;;;;;;9.83;9.07;;;16.80;99.90;;;;;;5074261;28;20197;-78
2022/10/24 04:31:58;;;;;;;9.70;8.73;;;16.90;99.90;;;;;;5066282;28;20225;-78
2022/10/24 04:34:24;;;;;;;15.17;8.30;;;17.00;99.90;;;;;;5054006;28;20178;-80
2022/10/24 04:36:50;;;;;;;8.87;7.80;;;17.00;99.90;;;;;;5054704;28;20261;-78
2022/10/24 04:39:16;;;;;;;10.77;8.03;;;17.00;99.90;;;;;;5054085;28;20186;-79
2022/10/24 04:41:41;;;;;;;9.07;8.13;;;17.00;99.90;;;;;;5057818;28;20201;-79
2022/10/24 04:44:07;;;;;;;11.67;8.10;;;17.00;99.90;;;;;;5057925;28;20214;-78
2022/10/24 04:46:33;;;;;;;9.27;8.33;;;17.20;99.90;;;;;;5055327;28;20551;-78
2022/10/24 04:48:59;;;;;;;11.77;9.27;;;17.20;99.90;;;;;;5060295;28;20185;-79
2022/10/24 04:51:25;;;;;;;12.50;11.20;;;17.30;99.90;;;;;;5061258;28;20560;-79
2022/10/24 04:53:51;;;;;;;11.97;10.23;;;17.30;99.90;;;;;;5060924;28;20205;-79
2022/10/24 04:56:18;;;;;;;14.07;12.77;;;17.30;99.90;;;;;;5075258;28;20178;-79
2022/10/24 04:58:44;;;;;;;18.80;17.20;;;17.30;99.90;;;;;;5075073;28;20555;-80
2022/10/24 05:01:09;;;;;;;23.00;21.07;;;17.30;99.90;;;;;;5078756;28;20250;-80
2022/10/24 05:03:35;;;;;;;23.63;21.87;;;17.30;99.90;;;;;;5058460;28;20257;-80
2022/10/24 05:06:01;;;;;;;23.57;21.57;;;17.20;99.90;;;;;;5054753;28;20190;-80
2022/10/24 05:08:27;;;;;;;15.73;14.37;;;17.20;99.90;;;;;;5053910;28;20194;-79
2022/10/24 05:10:53;;;;;;;13.77;11.57;;;17.20;99.90;;;;;;5055022;28;20676;-79
2022/10/24 05:13:19;;;;;;;10.30;9.37;;;17.10;99.90;;;;;;5072747;28;20228;-79
2022/10/24 05:15:44;;;;;;;19.17;11.80;;;17.00;99.90;;;;;;5082050;28;20546;-79
2022/10/24 05:18:10;;;;;;;14.30;10.30;;;17.00;99.90;;;;;;5075649;28;20185;-80
2022/10/24 05:20:36;;;;;;;15.03;8.63;;;17.00;99.90;;;;;;5075401;28;20181;-80
2022/10/24 05:23:02;;;;;;;9.83;8.90;;;16.90;99.90;;;;;;5061092;28;20198;-79
2022/10/24 05:25:28;;;;;;;9.53;8.60;;;16.80;99.90;;;;;;5055115;28;20187;-79
2022/10/24 05:27:54;;;;;;;7.57;6.60;;;16.80;99.90;;;;;;5055876;28;20550;-78
2022/10/24 05:30:20;;;;;;;8.57;6.13;;;16.80;99.90;;;;;;5072231;28;20188;-80
2022/10/24 05:32:46;;;;;;;9.93;6.40;;;16.80;99.90;;;;;;5074893;28;20213;-79
2022/10/24 05:35:12;;;;;;;7.17;6.03;;;16.70;99.90;;;;;;5073772;28;20185;-79
2022/10/24 05:37:38;;;;;;;11.33;6.00;;;16.80;99.90;;;;;;5074732;28;20213;-79
2022/10/24 05:40:06;;;;;;;14.57;7.10;;;16.70;99.90;;;;;;5075014;28;20265;-80
2022/10/24 05:42:32;;;;;;;9.50;6.17;;;16.70;99.90;;;;;;5073362;28;20198;-78
2022/10/24 05:44:57;;;;;;;8.80;7.93;;;16.70;99.90;;;;;;5064541;28;20197;-79
2022/10/24 05:47:23;;;;;;;10.90;6.43;;;16.70;99.90;;;;;;5054169;28;20178;-79
2022/10/24 05:49:49;;;;;;;8.27;7.47;;;16.80;99.90;;;;;;5064350;28;20182;-78
2022/10/24 05:52:15;;;;;;;10.63;7.10;;;16.70;99.90;;;;;;5080741;28;20220;-79
2022/10/24 05:54:41;;;;;;;13.67;7.23;;;16.60;99.90;;;;;;5075598;28;20235;-74
2022/10/24 05:57:06;;;;;;;12.63;11.43;;;16.50;99.90;;;;;;5070525;28;20541;-73
2022/10/24 05:59:32;;;;;;;33.47;30.60;;;16.40;99.90;;;;;;5052037;28;20815;-72
2022/10/24 06:01:58;;;;;;;95.73;90.43;;;16.20;99.90;;;;;;5070339;28;20182;-74
2022/10/24 06:04:24;;;;;;;81.90;75.93;;;16.00;99.90;;;;;;5064704;28;20178;-74
2022/10/24 06:06:50;;;;;;;49.77;46.60;;;15.90;99.90;;;;;;5071259;28;20181;-74
2022/10/24 06:09:16;;;;;;;84.07;79.37;;;15.80;99.90;;;;;;5071141;28;20191;-72
2022/10/24 06:11:42;;;;;;;63.40;59.03;;;15.70;99.90;;;;;;5058342;28;20209;-75
2022/10/24 06:14:08;;;;;;;38.93;36.03;;;15.60;99.90;;;;;;5071873;28;20328;-74
2022/10/24 06:16:34;;;;;;;20.77;18.77;;;15.60;99.90;;;;;;5071811;28;20180;-75
2022/10/24 06:19:00;;;;;;;15.37;13.63;;;15.60;99.90;;;;;;5071440;28;20180;-75
2022/10/24 06:21:26;;;;;;;19.43;13.57;;;15.70;99.90;;;;;;5071619;28;20812;-74
2022/10/24 06:23:52;;;;;;;14.73;12.47;;;15.70;99.90;;;;;;5050597;28;20198;-74
2022/10/24 06:26:18;;;;;;;21.17;10.17;;;15.70;99.90;;;;;;5049958;28;20170;-74
2022/10/24 06:28:44;;;;;;;15.53;13.90;;;15.80;99.90;;;;;;5049897;28;20623;-68
2022/10/24 06:31:11;;;;;;;18.03;16.27;;;15.80;99.90;;;;;;5065082;28;20185;-68
2022/10/24 06:33:38;;;;;;;17.07;15.57;;;16.00;99.90;;;;;;5070867;28;20240;-67
2022/10/24 06:36:08;;;;;;;16.27;14.93;;;16.00;99.90;;;;;;5069920;28;20177;-68
2022/10/24 06:38:35;;;;;;;14.00;12.90;;;16.00;99.90;;;;;;5070706;28;20178;-68
2022/10/24 06:41:08;;;;;;;12.63;11.47;;;16.00;99.90;;;;;;5065244;28;20223;-73
2022/10/24 06:43:36;;;;;;;11.40;10.23;;;16.00;99.90;;;;;;5070996;28;20212;-72
2022/10/24 06:46:06;;;;;;;9.57;8.73;;;15.90;99.90;;;;;;5070675;28;20642;-72
2022/10/24 06:48:33;;;;;;;9.03;8.20;;;15.70;99.90;;;;;;5070517;28;20181;-72
2022/10/24 06:50:59;;;;;;;30.03;28.13;;;15.60;99.90;;;;;;5069802;28;20562;-72
2022/10/24 06:53:25;;;;;;;31.80;28.63;;;15.50;99.90;;;;;;5069581;28;20213;-72
2022/10/24 06:55:51;;;;;;;49.73;47.00;;;15.50;99.90;;;;;;5070531;28;20231;-72
2022/10/24 06:58:16;;;;;;;42.63;39.93;;;15.40;99.90;;;;;;5070345;28;20570;-72
2022/10/24 07:00:42;;;;;;;54.60;51.27;;;15.40;99.90;;;;;;5070414;28;20642;-72
2022/10/24 07:03:13;;;;;;;65.37;61.60;;;15.50;99.90;;;;;;5069958;28;20201;-72
2022/10/24 07:05:39;;;;;;;55.73;52.43;;;15.40;99.90;;;;;;5069369;28;20217;-72
2022/10/24 07:08:05;;;;;;;30.93;28.90;;;15.40;99.90;;;;;;5070215;28;20208;-72
2022/10/24 07:10:31;;;;;;;21.87;20.07;;;15.40;99.90;;;;;;5070038;28;20178;-72
2022/10/24 07:12:57;;;;;;;23.67;21.93;;;15.40;99.90;;;;;;5069012;28;20220;-73
2022/10/24 07:15:22;;;;;;;24.40;22.80;;;15.40;99.90;;;;;;5070567;28;20186;-72
2022/10/24 07:17:48;;;;;;;32.80;30.60;;;15.40;99.90;;;;;;5069646;28;20173;-72
2022/10/24 07:20:14;;;;;;;48.20;44.73;;;15.50;99.90;;;;;;5070650;28;20242;-71
2022/10/24 07:22:41;;;;;;;21.87;19.63;;;15.50;99.90;;;;;;5069764;28;20190;-72
2022/10/24 07:25:07;;;;;;;15.27;13.87;;;15.40;99.90;;;;;;5068936;28;20182;-71
2022/10/24 07:27:33;;;;;;;39.87;36.90;;;15.30;99.90;;;;;;5069827;28;20185;-70
2022/10/24 07:30:00;;;;;;;66.27;61.87;;;15.10;99.90;;;;;;5070857;28;20182;-71
2022/10/24 07:32:25;;;;;;;216.77;203.73;;;15.10;99.90;;;;;;5072226;28;20266;-72
2022/10/24 07:34:51;;;;;;;87.40;82.20;;;15.10;99.90;;;;;;5070862;28;20284;-70
2022/10/24 07:37:18;;;;;;;41.23;38.50;;;15.00;99.90;;;;;;5058767;28;20594;-70
2022/10/24 07:39:45;;;;;;;26.37;24.37;;;15.00;99.90;;;;;;5061713;28;20264;-72
2022/10/24 07:42:13;;;;;;;22.10;20.27;;;15.00;99.90;;;;;;5048737;28;20183;-71
2022/10/24 07:44:38;;;;;;;21.53;19.43;;;15.10;99.90;;;;;;5050321;28;20188;-71
2022/10/24 07:47:06;;;;;;;31.23;28.93;;;15.10;99.90;;;;;;5056914;28;20561;-70
2022/10/24 07:49:35;;;;;;;55.67;52.53;;;15.10;99.90;;;;;;5070138;28;20645;-71
2022/10/24 07:52:01;;;;;;;70.80;65.97;;;15.10;99.90;;;;;;5068461;28;20575;-70
2022/10/24 07:54:29;;;;;;;80.07;74.83;;;15.10;99.90;;;;;;5069804;28;20527;-70
2022/10/24 07:56:55;;;;;;;68.50;63.37;;;15.20;99.90;;;;;;5069382;28;20265;-70
2022/10/24 07:59:21;;;;;;;50.13;46.40;;;15.20;99.90;;;;;;5069622;28;20264;-70
2022/10/24 08:01:47;;;;;;;42.33;39.43;;;15.30;99.90;;;;;;5069329;28;20297;-70
2022/10/24 08:04:12;;;;;;;79.53;75.03;;;15.30;99.90;;;;;;5071524;28;20275;-71
2022/10/24 08:06:41;;;;;;;57.10;53.17;;;15.30;99.90;;;;;;5073270;28;20182;-69
2022/10/24 08:09:07;;;;;;;36.73;33.83;;;15.20;99.90;;;;;;5073427;28;20181;-71
2022/10/24 08:11:33;;;;;;;28.73;26.23;;;15.10;99.90;;;;;;5073605;28;20620;-73
2022/10/24 08:14:01;;;;;;;27.47;25.47;;;15.10;99.90;;;;;;5072526;28;20215;-71
2022/10/24 08:16:27;;;;;;;38.23;35.60;;;15.10;99.90;;;;;;5073368;28;20197;-71
2022/10/24 08:18:55;;;;;;;35.87;33.47;;;15.10;99.90;;;;;;5073251;28;20185;-71
2022/10/24 08:21:21;;;;;;;35.30;32.93;;;15.10;99.90;;;;;;5073878;28;20174;-71
2022/10/24 08:23:50;;;;;;;33.10;30.53;;;15.10;99.90;;;;;;5073047;28;20197;-71
2022/10/24 08:26:18;;;;;;;23.97;22.17;;;15.20;99.90;;;;;;5072179;28;20676;-71
2022/10/24 08:28:45;;;;;;;41.23;38.67;;;15.20;99.90;;;;;;5072989;28;20616;-71
2022/10/24 08:31:14;;;;;;;43.00;40.10;;;15.20;99.90;;;;;;5073557;28;20312;-70
2022/10/24 08:33:40;;;;;;;50.47;47.00;;;15.10;99.90;;;;;;5054943;28;20566;-71
2022/10/24 08:36:21;;;;;;;47.53;44.53;;;15.10;99.90;;;;;;5052543;28;20189;-70
2022/10/24 08:38:47;;;;;;;184.30;174.77;;;15.10;99.90;;;;;;5072680;28;20555;-70
2022/10/24 08:41:49;;;;;;;18.43;13.87;;;15.00;99.90;;;;;;5073451;28;20180;-70
2022/10/24 08:44:21;;;;;;;14.37;10.70;;;14.90;99.90;;;;;;5057022;28;20930;-71
2022/10/24 08:47:05;;;;;;;16.33;14.93;;;14.80;99.90;;;;;;5058925;28;20174;-71
2022/10/24 08:49:51;;;;;;;14.87;11.17;;;14.80;99.90;;;;;;5073458;28;20576;-70
2022/10/24 08:52:19;;;;;;;23.50;21.63;;;14.80;99.90;;;;;;5073620;28;20213;-71
2022/10/24 08:54:45;;;;;;;23.10;21.20;;;14.80;99.90;;;;;;5074031;28;20239;-70
2022/10/24 08:57:32;;;;;;;71.77;67.87;;;14.90;99.90;;;;;;5072372;28;20206;-70
2022/10/24 09:00:07;;;;;;;73.97;69.43;;;15.00;99.90;;;;;;5073193;28;20235;-71
2022/10/24 09:02:36;;;;;;;45.57;42.93;;;15.10;99.90;;;;;;5072284;28;20200;-69
2022/10/24 09:05:26;;;;;;;15.30;14.27;;;15.20;99.90;;;;;;5072724;28;20182;-69
2022/10/24 09:08:00;;;;;;;14.67;13.27;;;15.30;99.90;;;;;;5072195;28;20186;-70
2022/10/24 09:10:42;;;;;;;15.13;13.87;;;15.30;99.90;;;;;;5072569;28;20190;-70
2022/10/24 09:13:13;;;;;;;39.93;37.53;;;15.40;99.90;;;;;;5072442;28;20248;-70
2022/10/24 09:15:41;;;;;;;39.03;36.43;;;15.40;99.90;;;;;;5072165;28;20177;-70
2022/10/24 09:18:22;;;;;;;58.10;54.90;;;15.40;99.90;;;;;;5055206;28;20297;-70
2022/10/24 09:20:50;;;;;;;29.23;27.40;;;15.40;99.90;;;;;;5052836;28;20220;-70
2022/10/24 09:23:18;;;;;;;23.60;21.90;;;15.50;99.90;;;;;;5052769;28;20289;-70
2022/10/24 09:25:48;;;;;;;15.77;14.47;;;15.50;99.90;;;;;;5051336;28;20615;-70
2022/10/24 09:28:15;;;;;;;16.70;15.23;;;15.60;99.90;;;;;;5067353;28;20681;-69
2022/10/24 09:30:41;;;;;;;25.17;23.50;;;15.60;99.90;;;;;;5071017;28;20616;-69
2022/10/24 09:33:14;;;;;;;16.90;15.53;;;15.60;99.90;;;;;;5072239;28;20311;-70
2022/10/24 09:35:41;;;;;;;18.50;17.07;;;15.70;99.90;;;;;;5072524;28;20182;-70
2022/10/24 09:38:26;;;;;;;21.13;19.27;;;15.80;99.90;;;;;;5071703;28;20222;-71
2022/10/24 09:40:57;;;;;;;20.03;18.47;;;15.80;99.90;;;;;;5071097;28;20672;-71
2022/10/24 09:43:38;;;;;;;17.17;15.87;;;15.80;99.90;;;;;;5070887;28;20228;-70
2022/10/24 09:46:17;;;;;;;16.60;14.97;;;15.90;99.90;;;;;;5072104;28;20191;-71
2022/10/24 09:49:03;;;;;;;22.17;15.90;;;15.90;99.90;;;;;;5051620;28;20264;-69
2022/10/24 09:51:35;;;;;;;16.77;15.53;;;16.00;99.90;;;;;;5051901;28;20218;-70
2022/10/24 09:54:19;;;;;;;19.40;17.83;;;16.00;99.90;;;;;;5051948;28;20245;-70
2022/10/24 09:56:56;;;;;;;28.87;26.87;;;16.00;99.90;;;;;;5055132;28;20205;-70
2022/10/24 09:59:41;;;;;;;27.03;25.07;;;16.00;99.90;;;;;;5071680;28;20183;-71
2022/10/24 10:02:09;;;;;;;8.53;7.73;;;16.00;99.90;;;;;;5070394;28;20607;-70
2022/10/24 10:04:37;;;;;;;10.67;7.73;;;16.00;99.90;;;;;;5071174;28;20666;-70
2022/10/24 10:07:16;;;;;;;13.67;11.50;;;16.00;99.90;;;;;;5069816;28;20216;-72
2022/10/24 10:09:52;;;;;;;20.90;19.53;;;16.00;99.90;;;;;;5070777;28;20273;-70
2022/10/24 10:12:34;;;;;;;13.40;12.07;;;16.00;99.90;;;;;;5071212;28;20213;-72
2022/10/24 10:15:15;;;;;;;74.87;70.47;;;16.10;99.90;;;;;;5071580;28;20202;-71
2022/10/24 10:17:51;;;;;;;239.33;225.17;;;16.20;99.90;;;;;;5070732;28;20565;-71
2022/10/24 10:20:41;;;;;;;314.40;296.37;;;16.30;99.90;;;;;;5058600;28;20189;-71
2022/10/24 10:23:27;;;;;;;115.50;108.50;;;16.30;99.90;;;;;;5051122;28;20209;-71
2022/10/24 10:26:15;;;;;;;55.60;52.70;;;16.40;99.90;;;;;;5049868;28;20587;-71
2022/10/24 10:28:52;;;;;;;20.00;18.53;;;16.50;99.90;;;;;;5069974;28;20582;-71
2022/10/24 10:31:26;;;;;;;17.83;16.50;;;16.60;99.90;;;;;;5071263;28;20181;-71
2022/10/24 10:34:13;;;;;;;27.90;25.87;;;16.60;99.90;;;;;;5070012;28;20296;-72
2022/10/24 10:37:21;;;;;;;44.00;41.43;;;16.70;99.90;;;;;;5063483;28;20670;-74
2022/10/24 10:39:53;;;;;;;44.90;42.00;;;16.90;99.90;;;;;;5068947;28;20200;-71
2022/10/24 10:42:35;;;;;;;32.77;30.43;;;17.00;99.90;;;;;;5070656;28;20205;-70
2022/10/24 10:45:29;;;;;;;37.13;34.93;;;17.00;99.90;;;;;;5070868;28;20177;-71
2022/10/24 10:48:37;;;;;;;62.70;58.90;;;17.10;99.90;;;;;;5070664;28;20238;-71
2022/10/24 10:51:22;;;;;;;46.73;43.87;;;17.10;99.90;;;;;;5070788;28;20182;-71
2022/10/24 10:54:12;;;;;;;36.77;34.37;;;17.20;99.90;;;;;;5070350;28;20305;-70
2022/10/24 10:56:52;;;;;;;33.40;31.40;;;17.20;99.90;;;;;;5069569;28;20185;-69
2022/10/24 10:59:24;;;;;;;18.93;17.67;;;17.40;99.90;;;;;;5070373;28;20519;-71
2022/10/24 11:02:25;;;;;;;20.50;18.67;;;17.40;99.90;;;;;;5070993;28;20192;-72
2022/10/24 11:05:29;;;;;;;22.13;20.70;;;17.50;99.90;;;;;;5063838;28;20189;-70
2022/10/24 11:08:17;;;;;;;29.93;27.53;;;17.60;99.90;;;;;;5070239;28;20653;-71
2022/10/24 11:10:57;;;;;;;45.73;43.00;;;17.60;99.90;;;;;;5069982;28;20182;-70
2022/10/24 11:13:30;;;;;;;36.80;34.63;;;17.60;99.90;;;;;;5070111;28;20213;-71
2022/10/24 11:16:01;;;;;;;32.40;29.87;;;17.60;99.90;;;;;;5070667;28;20231;-71
2022/10/24 11:18:33;;;;;;;41.37;38.60;;;17.50;99.90;;;;;;5069665;28;20177;-72
2022/10/24 11:21:10;;;;;;;73.10;68.97;;;17.50;99.90;;;;;;5068314;28;20204;-74
2022/10/24 11:23:49;;;;;;;83.00;78.57;;;17.60;99.90;;;;;;5057492;28;20603;-71
2022/10/24 11:26:18;;;;;;;63.90;60.23;;;17.70;99.90;;;;;;5068668;28;20242;-71
2022/10/24 11:29:08;;;;;;;97.73;92.67;;;17.90;99.90;;;;;;5068810;28;20268;-72
2022/10/24 11:31:41;;;;;;;158.10;150.00;;;18.00;99.90;;;;;;5050055;28;20182;-71
2022/10/24 11:34:16;;;;;;;30.73;29.07;;;18.20;99.90;;;;;;5050097;28;20221;-71
2022/10/24 11:36:45;;;;;;;14.03;12.93;;;18.30;99.90;;;;;;5048637;28;20181;-71
2022/10/24 11:39:21;;;;;;;16.73;15.83;;;18.30;99.90;;;;;;5052248;28;20209;-71
2022/10/24 11:42:11;;;;;;;52.73;49.63;;;18.30;99.90;;;;;;5068630;28;20189;-72
2022/10/24 11:45:05;;;;;;;50.07;47.03;;;18.30;99.90;;;;;;5070420;28;20542;-72
2022/10/24 11:47:48;;;;;;;46.73;44.17;;;18.40;99.90;;;;;;5069849;28;20284;-71
2022/10/24 11:50:29;;;;;;;20.27;18.97;;;18.50;99.90;;;;;;5067726;28;20177;-70
2022/10/24 11:53:09;;;;;;;14.70;13.77;;;18.60;99.90;;;;;;5069522;28;20216;-71
2022/10/24 11:55:40;;;;;;;41.43;39.27;;;18.60;99.90;;;;;;5070036;28;20276;-69
2022/10/24 11:58:13;;;;;;;42.93;40.43;;;18.60;99.90;;;;;;5069625;28;20705;-69
2022/10/24 12:00:47;;;;;;;47.23;44.50;;;18.60;99.90;;;;;;5069669;28;20709;-71
2022/10/24 12:03:36;;;;;;;59.23;55.97;;;18.60;99.90;;;;;;5070029;28;20201;-71
2022/10/24 12:06:08;;;;;;;66.70;63.10;;;18.60;99.90;;;;;;5068571;28;20182;-72
2022/10/24 12:08:54;;;;;;;62.80;59.47;;;18.60;99.90;;;;;;5068470;28;20653;-73
2022/10/24 12:11:42;;;;;;;61.13;57.77;;;18.60;99.90;;;;;;5069828;28;20239;-72
2022/10/24 12:14:25;;;;;;;41.30;39.03;;;18.60;99.90;;;;;;5069939;28;20301;-72
2022/10/24 12:17:26;;;;;;;32.57;30.90;;;18.60;99.90;;;;;;5062490;28;20183;-72
2022/10/24 12:19:52;;;;;;;39.27;37.20;;;18.50;99.90;;;;;;4968029;28;20180;-72
2022/10/24 12:22:22;;;;;;;27.13;25.50;;;18.50;99.90;;;;;;5053124;28;20582;-73
2022/10/24 12:25:00;;;;;;;13.43;12.53;;;18.60;99.90;;;;;;5068691;28;20224;-72
2022/10/24 12:27:37;;;;;;;8.93;8.37;;;18.70;99.90;;;;;;5069217;28;20189;-71
2022/10/24 12:30:17;;;;;;;6.97;6.40;;;18.70;99.90;;;;;;5069438;28;20235;-72
2022/10/24 12:32:50;;;;;;;6.40;5.80;;;18.80;99.90;;;;;;5069514;28;20266;-72
2022/10/24 12:35:32;;;;;;;6.97;5.93;;;18.70;99.90;;;;;;5069827;28;20224;-71
2022/10/24 12:37:59;;;;;;;8.07;7.23;;;18.70;99.90;;;;;;5068087;28;20177;-71
2022/10/24 12:40:44;;;;;;;5.67;5.17;;;18.60;99.90;;;;;;5059931;28;20179;-72
2022/10/24 12:43:35;;;;;;;7.70;6.97;;;18.50;99.90;;;;;;5069371;28;20579;-71
2022/10/24 12:46:13;;;;;;;18.63;17.53;;;18.50;99.90;;;;;;5068768;28;20272;-72
2022/10/24 12:48:40;;;;;;;45.87;43.33;;;18.30;99.90;;;;;;5069765;28;20181;-72
2022/10/24 12:51:43;;;;;;;33.70;31.67;;;18.40;99.90;;;;;;5072859;28;20193;-72